sensor_id;sensor_type;location;lat;lon;timestamp;P1;durP1;ratioP1;P2;durP2;ratioP2
21773;SDS011;16087;51.662;6.458;2022-07-10T06:06:44;6.53;;;1.88;;
21773;SDS011;16087;51.662;6.458;2022-07-10T06:13:26;7.95;;;1.80;;
21773;SDS011;16087;51.662;6.458;2022-07-10T06:20:07;10.48;;;2.13;;
21773;SDS011;16087;51.662;6.458;2022-07-10T06:26:48;8.85;;;1.90;;
21773;SDS011;16087;51.662;6.458;2022-07-10T06:33:29;9.32;;;2.22;;
21773;SDS011;16087;51.662;6.458;2022-07-10T06:40:11;11.88;;;3.00;;
21773;SDS011;16087;51.662;6.458;2022-07-10T06:46:54;9.02;;;2.15;;
21773;SDS011;16087;51.662;6.458;2022-07-10T06:53:53;10.05;;;2.60;;
21773;SDS011;16087;51.662;6.458;2022-07-10T07:00:36;7.55;;;1.83;;
21773;SDS011;16087;51.662;6.458;2022-07-10T07:07:16;11.80;;;1.95;;
21773;SDS011;16087;51.662;6.458;2022-07-10T07:13:57;11.80;;;2.00;;
21773;SDS011;16087;51.662;6.458;2022-07-10T07:20:38;9.43;;;1.90;;
21773;SDS011;16087;51.662;6.458;2022-07-10T07:27:57;10.98;;;2.25;;
21773;SDS011;16087;51.662;6.458;2022-07-10T07:34:38;13.80;;;2.45;;
21773;SDS011;16087;51.662;6.458;2022-07-10T07:41:19;10.02;;;2.10;;
21773;SDS011;16087;51.662;6.458;2022-07-10T07:47:59;12.52;;;2.05;;
21773;SDS011;16087;51.662;6.458;2022-07-10T07:54:41;4.30;;;1.60;;
21773;SDS011;16087;51.662;6.458;2022-07-10T08:01:22;9.70;;;2.25;;
21773;SDS011;16087;51.662;6.458;2022-07-10T08:08:03;11.05;;;2.22;;
21773;SDS011;16087;51.662;6.458;2022-07-10T08:21:29;14.55;;;3.03;;
21773;SDS011;16087;51.662;6.458;2022-07-10T08:28:10;15.20;;;3.20;;
21773;SDS011;16087;51.662;6.458;2022-07-10T08:34:51;17.92;;;3.88;;
21773;SDS011;16087;51.662;6.458;2022-07-10T08:41:32;15.43;;;3.88;;
21773;SDS011;16087;51.662;6.458;2022-07-10T08:48:18;12.65;;;3.60;;
21773;SDS011;16087;51.662;6.458;2022-07-10T08:55:02;10.10;;;3.10;;
21773;SDS011;16087;51.662;6.458;2022-07-10T09:01:43;11.20;;;3.40;;
21773;SDS011;16087;51.662;6.458;2022-07-10T09:08:25;8.05;;;2.60;;
21773;SDS011;16087;51.662;6.458;2022-07-10T09:15:15;5.82;;;2.00;;
21773;SDS011;16087;51.662;6.458;2022-07-10T09:22:07;7.55;;;2.40;;
21773;SDS011;16087;51.662;6.458;2022-07-10T09:28:53;6.82;;;2.28;;
21773;SDS011;16087;51.662;6.458;2022-07-10T09:42:45;8.85;;;2.83;;
21773;SDS011;16087;51.662;6.458;2022-07-10T09:49:28;8.65;;;2.58;;
21773;SDS011;16087;51.662;6.458;2022-07-10T09:56:11;7.13;;;2.33;;
21773;SDS011;16087;51.662;6.458;2022-07-10T10:02:57;8.25;;;2.53;;
21773;SDS011;16087;51.662;6.458;2022-07-10T10:09:45;5.05;;;1.73;;
21773;SDS011;16087;51.662;6.458;2022-07-10T10:16:30;4.85;;;1.98;;
21773;SDS011;16087;51.662;6.458;2022-07-10T10:23:15;7.57;;;2.15;;
21773;SDS011;16087;51.662;6.458;2022-07-10T10:29:58;8.85;;;2.67;;
21773;SDS011;16087;51.662;6.458;2022-07-10T10:36:44;7.50;;;2.17;;
21773;SDS011;16087;51.662;6.458;2022-07-10T10:43:26;6.47;;;2.15;;
21773;SDS011;16087;51.662;6.458;2022-07-10T10:50:07;5.45;;;1.58;;
21773;SDS011;16087;51.662;6.458;2022-07-10T11:10:53;4.93;;;1.60;;
21773;SDS011;16087;51.662;6.458;2022-07-10T11:17:34;9.13;;;2.53;;
21773;SDS011;16087;51.662;6.458;2022-07-10T11:24:31;7.65;;;1.90;;
21773;SDS011;16087;51.662;6.458;2022-07-10T11:31:23;7.88;;;1.75;;
21773;SDS011;16087;51.662;6.458;2022-07-10T11:38:04;5.85;;;1.55;;
21773;SDS011;16087;51.662;6.458;2022-07-10T11:44:45;9.98;;;1.60;;
21773;SDS011;16087;51.662;6.458;2022-07-10T11:51:27;4.57;;;1.40;;
21773;SDS011;16087;51.662;6.458;2022-07-10T11:58:13;2.63;;;1.38;;
21773;SDS011;16087;51.662;6.458;2022-07-10T12:04:55;6.15;;;1.98;;
21773;SDS011;16087;51.662;6.458;2022-07-10T12:11:35;5.00;;;1.60;;
21773;SDS011;16087;51.662;6.458;2022-07-10T12:18:20;6.13;;;1.77;;
21773;SDS011;16087;51.662;6.458;2022-07-10T12:25:02;8.75;;;1.77;;
21773;SDS011;16087;51.662;6.458;2022-07-10T12:31:47;6.50;;;1.88;;
21773;SDS011;16087;51.662;6.458;2022-07-10T12:38:30;4.50;;;1.83;;
21773;SDS011;16087;51.662;6.458;2022-07-10T12:45:14;5.07;;;1.45;;
21773;SDS011;16087;51.662;6.458;2022-07-10T12:51:55;8.95;;;2.05;;
21773;SDS011;16087;51.662;6.458;2022-07-10T12:58:36;5.38;;;1.67;;
21773;SDS011;16087;51.662;6.458;2022-07-10T13:12:08;7.57;;;1.40;;
21773;SDS011;16087;51.662;6.458;2022-07-10T13:18:49;10.82;;;1.60;;
21773;SDS011;16087;51.662;6.458;2022-07-10T13:25:29;3.90;;;1.40;;
21773;SDS011;16087;51.662;6.458;2022-07-10T13:32:10;6.93;;;1.77;;
21773;SDS011;16087;51.662;6.458;2022-07-10T13:38:51;5.32;;;1.60;;
21773;SDS011;16087;51.662;6.458;2022-07-10T13:45:34;3.92;;;1.45;;
21773;SDS011;16087;51.662;6.458;2022-07-10T13:52:23;8.43;;;1.70;;
21773;SDS011;16087;51.662;6.458;2022-07-10T13:59:03;7.57;;;1.58;;
21773;SDS011;16087;51.662;6.458;2022-07-10T14:05:44;5.57;;;1.67;;
21773;SDS011;16087;51.662;6.458;2022-07-10T14:12:25;8.38;;;1.60;;
21773;SDS011;16087;51.662;6.458;2022-07-10T14:19:05;9.55;;;2.00;;
21773;SDS011;16087;51.662;6.458;2022-07-10T14:25:47;7.85;;;1.83;;
21773;SDS011;16087;51.662;6.458;2022-07-10T14:32:29;5.70;;;1.60;;
21773;SDS011;16087;51.662;6.458;2022-07-10T14:39:10;8.50;;;1.60;;
21773;SDS011;16087;51.662;6.458;2022-07-10T14:45:52;3.38;;;1.33;;
21773;SDS011;16087;51.662;6.458;2022-07-10T14:52:33;7.57;;;1.40;;
21773;SDS011;16087;51.662;6.458;2022-07-10T14:59:16;3.15;;;1.20;;
21773;SDS011;16087;51.662;6.458;2022-07-10T15:05:57;5.82;;;1.40;;
21773;SDS011;16087;51.662;6.458;2022-07-10T15:12:38;4.18;;;1.33;;
21773;SDS011;16087;51.662;6.458;2022-07-10T15:19:18;6.45;;;1.30;;
21773;SDS011;16087;51.662;6.458;2022-07-10T15:25:59;4.32;;;1.20;;
21773;SDS011;16087;51.662;6.458;2022-07-10T15:32:41;6.80;;;1.70;;
21773;SDS011;16087;51.662;6.458;2022-07-10T15:39:23;6.90;;;1.38;;
21773;SDS011;16087;51.662;6.458;2022-07-10T15:46:04;4.70;;;1.55;;
21773;SDS011;16087;51.662;6.458;2022-07-10T15:52:46;5.68;;;1.55;;
21773;SDS011;16087;51.662;6.458;2022-07-10T15:59:28;4.65;;;1.50;;
21773;SDS011;16087;51.662;6.458;2022-07-10T16:06:09;5.25;;;1.38;;
21773;SDS011;16087;51.662;6.458;2022-07-10T16:12:50;5.03;;;1.52;;
21773;SDS011;16087;51.662;6.458;2022-07-10T16:19:31;4.97;;;1.50;;
21773;SDS011;16087;51.662;6.458;2022-07-10T16:26:12;5.20;;;1.58;;
21773;SDS011;16087;51.662;6.458;2022-07-10T16:32:53;8.35;;;1.40;;
21773;SDS011;16087;51.662;6.458;2022-07-10T16:39:34;7.65;;;1.60;;
21773;SDS011;16087;51.662;6.458;2022-07-10T16:46:15;4.80;;;1.58;;
21773;SDS011;16087;51.662;6.458;2022-07-10T16:52:56;4.90;;;1.58;;
21773;SDS011;16087;51.662;6.458;2022-07-10T16:59:37;4.18;;;1.45;;
21773;SDS011;16087;51.662;6.458;2022-07-10T17:06:18;4.88;;;1.40;;
21773;SDS011;16087;51.662;6.458;2022-07-10T17:12:58;8.20;;;1.30;;
21773;SDS011;16087;51.662;6.458;2022-07-10T17:19:39;7.60;;;1.70;;
21773;SDS011;16087;51.662;6.458;2022-07-10T17:26:20;6.03;;;2.00;;
21773;SDS011;16087;51.662;6.458;2022-07-10T17:33:00;4.43;;;1.73;;
21773;SDS011;16087;51.662;6.458;2022-07-10T17:39:41;5.55;;;1.98;;
21773;SDS011;16087;51.662;6.458;2022-07-10T17:46:23;6.07;;;1.80;;
21773;SDS011;16087;51.662;6.458;2022-07-10T17:53:04;3.03;;;1.33;;
21773;SDS011;16087;51.662;6.458;2022-07-10T17:59:45;3.22;;;1.33;;
21773;SDS011;16087;51.662;6.458;2022-07-10T18:06:25;4.50;;;1.55;;
21773;SDS011;16087;51.662;6.458;2022-07-10T18:13:06;6.95;;;1.58;;
21773;SDS011;16087;51.662;6.458;2022-07-10T18:19:47;8.10;;;1.50;;
21773;SDS011;16087;51.662;6.458;2022-07-10T18:26:28;3.92;;;1.70;;
21773;SDS011;16087;51.662;6.458;2022-07-10T18:33:09;5.57;;;1.80;;
21773;SDS011;16087;51.662;6.458;2022-07-10T18:40:09;6.10;;;1.88;;
21773;SDS011;16087;51.662;6.458;2022-07-10T18:46:50;6.80;;;1.88;;
21773;SDS011;16087;51.662;6.458;2022-07-10T18:53:31;5.72;;;1.70;;
21773;SDS011;16087;51.662;6.458;2022-07-10T19:00:11;5.25;;;1.80;;
21773;SDS011;16087;51.662;6.458;2022-07-10T19:06:53;4.68;;;1.83;;
21773;SDS011;16087;51.662;6.458;2022-07-10T19:13:33;8.10;;;1.83;;
21773;SDS011;16087;51.662;6.458;2022-07-10T19:20:14;5.40;;;1.98;;
21773;SDS011;16087;51.662;6.458;2022-07-10T19:26:55;8.07;;;2.20;;
21773;SDS011;16087;51.662;6.458;2022-07-10T19:33:36;5.00;;;1.98;;
21773;SDS011;16087;51.662;6.458;2022-07-10T19:40:17;5.10;;;1.80;;
21773;SDS011;16087;51.662;6.458;2022-07-10T19:46:59;6.82;;;1.73;;
21773;SDS011;16087;51.662;6.458;2022-07-10T19:53:39;6.35;;;2.13;;
21773;SDS011;16087;51.662;6.458;2022-07-10T20:00:21;8.43;;;2.15;;
21773;SDS011;16087;51.662;6.458;2022-07-10T20:07:02;4.05;;;1.90;;
21773;SDS011;16087;51.662;6.458;2022-07-10T20:13:43;7.20;;;2.50;;
21773;SDS011;16087;51.662;6.458;2022-07-10T20:20:24;4.20;;;2.10;;
21773;SDS011;16087;51.662;6.458;2022-07-10T20:27:05;5.15;;;2.03;;
21773;SDS011;16087;51.662;6.458;2022-07-10T20:33:45;6.82;;;1.80;;
21773;SDS011;16087;51.662;6.458;2022-07-10T20:40:26;10.98;;;2.33;;
21773;SDS011;16087;51.662;6.458;2022-07-10T20:47:07;6.97;;;2.10;;
21773;SDS011;16087;51.662;6.458;2022-07-10T20:53:48;5.72;;;2.47;;
